Terminal Aerodrome Forecast
Issued by NWS

Home | Current Version | Previous Version | Text Only | Print | Product List | Glossary On
Versions: 1 2 3 4 5 6 7 8 9 10 11 12 13 14 15 16 17 18 19 20 21 22 23 24 25 26
000
FTUS43 KIND 272100 AAD
TAFLAF
TAF AMD
KLAF 272102Z 2721/2818 29015G24KT P6SM VCTS FEW035 FEW060CB
     FM280100 35002KT P6SM SCT250
     FM280900 VRB01KT 3SM BR SCT250
     FM281200 11006KT P6SM SCT040=

USA.gov is the U.S. government's official web portal to all federal, state and local government web resources and services.